Time;durP1;ratioP1;P1;durP2;ratioP2;P2;SDS_P1;SDS_P2;PMS_P1;PMS_P2;Temp;Humidity;BMP_temperature;BMP_pressure;BME280_temperature;BME280_humidity;BME280_pressure;Samples;Min_cycle;Max_cycle;Signal;HPM_P1;HPM_P2
2023/01/21 00:00:08;;;;;;;36.95;17.23;;;0.40;99.90;;;;;;2045622;29;20042;-75
2023/01/21 00:01:09;;;;;;;32.15;15.57;;;0.40;99.90;;;;;;2045069;28;20035;-75
2023/01/21 00:02:10;;;;;;;34.53;15.98;;;0.40;99.90;;;;;;2045915;29;20126;-74
2023/01/21 00:03:11;;;;;;;32.38;16.27;;;0.40;99.90;;;;;;2043979;29;20361;-74
2023/01/21 00:04:12;;;;;;;30.20;15.10;;;0.40;99.90;;;;;;2047175;28;20046;-74
2023/01/21 00:05:13;;;;;;;30.23;15.65;;;0.40;99.90;;;;;;2046552;28;20046;-74
2023/01/21 00:06:13;;;;;;;29.27;15.23;;;0.40;99.90;;;;;;2051344;28;20501;-74
2023/01/21 00:07:14;;;;;;;32.85;15.40;;;0.40;99.90;;;;;;2048202;28;20050;-76
2023/01/21 00:08:15;;;;;;;31.30;14.82;;;0.40;99.90;;;;;;2044724;28;20372;-74
2023/01/21 00:09:15;;;;;;;29.77;14.95;;;0.40;99.90;;;;;;2045672;29;20041;-74
2023/01/21 00:10:17;;;;;;;34.05;15.85;;;0.40;99.90;;;;;;2045778;29;20116;-73
2023/01/21 00:11:18;;;;;;;31.80;14.73;;;0.40;99.90;;;;;;2045838;29;20038;-73
2023/01/21 00:12:18;;;;;;;29.50;15.25;;;0.40;99.90;;;;;;2045754;28;20495;-75
2023/01/21 00:13:19;;;;;;;31.05;15.43;;;0.40;99.90;;;;;;2043564;29;20054;-72
2023/01/21 00:14:19;;;;;;;27.42;14.07;;;0.40;99.90;;;;;;2045544;29;20046;-75
2023/01/21 00:15:20;;;;;;;29.90;14.82;;;0.40;99.90;;;;;;2045450;29;20440;-73
2023/01/21 00:16:20;;;;;;;30.73;14.70;;;0.40;99.90;;;;;;2045414;29;20441;-74
2023/01/21 00:17:21;;;;;;;30.83;14.63;;;0.40;99.90;;;;;;2046083;29;20031;-74
2023/01/21 00:18:21;;;;;;;31.35;14.70;;;0.40;99.90;;;;;;2043917;28;20098;-73
2023/01/21 00:19:22;;;;;;;32.30;15.60;;;0.40;99.90;;;;;;2045591;29;20522;-73
2023/01/21 00:20:23;;;;;;;33.38;15.77;;;0.40;99.90;;;;;;2046615;28;20059;-74
2023/01/21 00:21:23;;;;;;;32.05;15.20;;;0.30;99.90;;;;;;2046298;28;20058;-74
2023/01/21 00:22:24;;;;;;;31.95;15.38;;;0.30;99.90;;;;;;2045770;28;20035;-74
2023/01/21 00:23:24;;;;;;;32.85;15.73;;;0.30;99.90;;;;;;2044029;29;20035;-74
2023/01/21 00:24:25;;;;;;;33.85;16.23;;;0.30;99.90;;;;;;2047147;28;20487;-74
2023/01/21 00:25:25;;;;;;;35.20;16.17;;;0.30;99.90;;;;;;2045989;28;20131;-74
2023/01/21 00:26:26;;;;;;;38.05;16.50;;;0.30;99.90;;;;;;2052423;28;20412;-74
2023/01/21 00:27:27;;;;;;;36.03;17.20;;;0.30;99.90;;;;;;2046361;28;20046;-74
2023/01/21 00:28:29;;;;;;;35.67;17.33;;;0.30;99.90;;;;;;2035306;29;20042;-77
2023/01/21 00:29:29;;;;;;;36.92;17.55;;;0.30;99.90;;;;;;2037168;29;20035;-75
2023/01/21 00:30:30;;;;;;;36.05;17.23;;;0.30;99.90;;;;;;2048374;28;20118;-74
2023/01/21 00:31:31;;;;;;;39.05;17.08;;;0.30;99.90;;;;;;2044807;29;20553;-75
2023/01/21 00:32:31;;;;;;;38.08;17.48;;;0.30;99.90;;;;;;2043225;28;20503;-74
2023/01/21 00:33:32;;;;;;;35.97;17.05;;;0.30;99.90;;;;;;2053525;28;20058;-74
2023/01/21 00:34:33;;;;;;;38.85;18.58;;;0.30;99.90;;;;;;2037426;29;20051;-73
2023/01/21 00:35:33;;;;;;;37.05;17.17;;;0.30;99.90;;;;;;2037010;29;20107;-74
2023/01/21 00:36:34;;;;;;;35.97;17.55;;;0.30;99.90;;;;;;2053021;28;20034;-74
2023/01/21 00:37:34;;;;;;;37.78;17.65;;;0.30;99.90;;;;;;2035771;29;20137;-74
2023/01/21 00:38:35;;;;;;;37.50;18.08;;;0.30;99.90;;;;;;2044904;29;20031;-74
2023/01/21 00:39:41;;;;;;;40.58;17.73;;;0.40;99.90;;;;;;2045512;29;20482;-74
2023/01/21 00:40:42;;;;;;;38.75;17.50;;;0.40;99.90;;;;;;2045605;29;20483;-75
2023/01/21 00:41:52;;;;;;;35.88;17.35;;;0.40;99.90;;;;;;2045828;28;20043;-74
2023/01/21 00:42:53;;;;;;;36.58;16.80;;;0.40;99.90;;;;;;2040873;29;20023;-74
2023/01/21 00:43:54;;;;;;;43.20;19.38;;;0.40;99.90;;;;;;2045303;29;20467;-75
2023/01/21 00:44:56;;;;;;;41.15;19.05;;;0.40;99.90;;;;;;2040568;29;20031;-74
2023/01/21 00:45:57;;;;;;;46.53;19.90;;;0.30;99.90;;;;;;2045494;29;20019;-74
2023/01/21 00:46:57;;;;;;;44.42;19.92;;;0.20;99.90;;;;;;2045789;28;20106;-74
2023/01/21 00:47:58;;;;;;;44.75;20.15;;;0.30;99.90;;;;;;2043751;29;20039;-74
2023/01/21 00:48:59;;;;;;;51.70;20.45;;;0.20;99.90;;;;;;2045606;29;20023;-73
2023/01/21 00:49:59;;;;;;;45.53;20.92;;;0.20;99.90;;;;;;2045568;29;20792;-73
2023/01/21 00:51:00;;;;;;;44.75;20.55;;;0.20;99.90;;;;;;2047523;28;20094;-73
2023/01/21 00:52:01;;;;;;;50.78;21.33;;;0.20;99.90;;;;;;2046168;28;20082;-73
2023/01/21 00:53:01;;;;;;;47.92;20.33;;;0.10;99.90;;;;;;2043798;28;20019;-73
2023/01/21 00:54:02;;;;;;;47.85;21.35;;;0.10;99.90;;;;;;2045602;29;20146;-74
2023/01/21 00:55:03;;;;;;;49.35;21.30;;;0.10;99.90;;;;;;2045587;29;20116;-73
2023/01/21 00:56:05;;;;;;;43.95;19.38;;;0.10;99.90;;;;;;2045401;28;20027;-73
2023/01/21 00:57:07;;;;;;;44.25;19.70;;;0.20;99.90;;;;;;2045572;29;20038;-73
2023/01/21 00:58:07;;;;;;;42.20;19.35;;;0.20;99.90;;;;;;2043661;29;20039;-74
2023/01/21 00:59:08;;;;;;;41.90;19.92;;;0.10;99.90;;;;;;2045469;29;20043;-74
2023/01/21 01:00:11;;;;;;;45.10;19.38;;;0.10;99.90;;;;;;2045171;29;20027;-74
2023/01/21 01:01:16;;;;;;;46.03;19.67;;;0.10;99.90;;;;;;2045375;29;20042;-74
2023/01/21 01:02:17;;;;;;;44.00;19.75;;;0.10;99.90;;;;;;2045381;29;20126;-73
2023/01/21 01:03:17;;;;;;;43.00;20.00;;;0.10;99.90;;;;;;2043971;29;20066;-73
2023/01/21 01:04:18;;;;;;;44.85;19.30;;;0.20;99.90;;;;;;2045498;28;20035;-73
2023/01/21 01:05:21;;;;;;;45.42;19.70;;;0.20;99.90;;;;;;2045977;29;20031;-74
2023/01/21 01:06:22;;;;;;;41.53;19.60;;;0.20;99.90;;;;;;2045091;29;20067;-74
2023/01/21 01:07:23;;;;;;;45.85;19.65;;;0.20;99.90;;;;;;2038710;29;20035;-73
2023/01/21 01:08:23;;;;;;;41.08;19.90;;;0.20;99.90;;;;;;2045158;29;20592;-74
2023/01/21 01:09:24;;;;;;;42.75;18.92;;;0.20;99.90;;;;;;2052520;28;20042;-74
2023/01/21 01:10:25;;;;;;;43.13;19.27;;;0.20;99.90;;;;;;2048554;28;20066;-73
2023/01/21 01:11:26;;;;;;;46.15;20.27;;;0.20;99.90;;;;;;2047818;28;20503;-73
2023/01/21 01:12:28;;;;;;;44.80;20.25;;;0.20;99.90;;;;;;2038077;29;20046;-74
2023/01/21 01:13:29;;;;;;;45.15;19.90;;;0.20;99.90;;;;;;2038603;29;20043;-74
2023/01/21 01:14:29;;;;;;;49.88;21.50;;;0.20;99.90;;;;;;2046932;29;20039;-74
2023/01/21 01:15:30;;;;;;;50.13;21.10;;;0.20;99.90;;;;;;2047021;29;20030;-74
2023/01/21 01:16:31;;;;;;;52.35;21.70;;;0.20;99.90;;;;;;2047011;29;20809;-74
2023/01/21 01:17:31;;;;;;;50.03;21.08;;;0.20;99.90;;;;;;2044482;28;20070;-74
2023/01/21 01:18:34;;;;;;;48.22;21.30;;;0.10;99.90;;;;;;2046549;29;20491;-73
2023/01/21 01:19:34;;;;;;;47.38;21.40;;;0.20;99.90;;;;;;2047472;28;20032;-73
2023/01/21 01:20:35;;;;;;;49.40;21.42;;;0.20;99.90;;;;;;2046062;29;20066;-73
2023/01/21 01:21:35;;;;;;;46.63;20.63;;;0.20;99.90;;;;;;2038391;29;20036;-74
2023/01/21 01:22:36;;;;;;;46.10;20.88;;;0.20;99.90;;;;;;2036523;29;20111;-73
2023/01/21 01:23:36;;;;;;;47.22;21.13;;;0.20;99.90;;;;;;2047133;29;20379;-74
2023/01/21 01:24:37;;;;;;;45.78;20.75;;;0.10;99.90;;;;;;2041154;29;20578;-74
2023/01/21 01:25:37;;;;;;;44.85;20.42;;;0.10;99.90;;;;;;2038190;29;20040;-73
2023/01/21 01:26:39;;;;;;;44.65;19.92;;;0.10;99.90;;;;;;2053266;28;20110;-73
2023/01/21 01:27:40;;;;;;;47.40;20.75;;;0.10;99.90;;;;;;2045549;28;20031;-73
2023/01/21 01:28:41;;;;;;;43.78;19.55;;;0.00;99.90;;;;;;2046405;29;20614;-74
2023/01/21 01:29:41;;;;;;;47.92;20.92;;;0.10;99.90;;;;;;2046249;29;20047;-73
2023/01/21 01:30:42;;;;;;;42.10;19.73;;;0.10;99.90;;;;;;2048112;28;20502;-74
2023/01/21 01:31:43;;;;;;;45.40;20.33;;;0.10;99.90;;;;;;2047503;28;20146;-73
2023/01/21 01:32:43;;;;;;;47.08;21.08;;;0.10;99.90;;;;;;2045425;28;20047;-75
2023/01/21 01:33:44;;;;;;;46.38;21.10;;;0.10;99.90;;;;;;2047219;29;20031;-74
2023/01/21 01:34:45;;;;;;;48.67;21.50;;;0.10;99.90;;;;;;2046882;29;20424;-74
2023/01/21 01:35:47;;;;;;;45.67;21.70;;;0.00;99.90;;;;;;2046745;29;20043;-73
2023/01/21 01:36:48;;;;;;;47.58;21.70;;;0.00;99.90;;;;;;2046762;29;20095;-74
2023/01/21 01:37:49;;;;;;;46.67;22.08;;;0.00;99.90;;;;;;2045630;28;20035;-73
2023/01/21 01:38:51;;;;;;;51.95;22.30;;;0.00;99.90;;;;;;2046805;29;20185;-73
2023/01/21 01:39:51;;;;;;;50.42;23.13;;;0.00;99.90;;;;;;2047024;29;20141;-73
2023/01/21 01:40:52;;;;;;;50.45;21.95;;;0.00;99.90;;;;;;2046635;29;20082;-73
2023/01/21 01:41:53;;;;;;;53.60;22.42;;;-0.10;99.90;;;;;;2046852;29;20088;-74
2023/01/21 01:42:53;;;;;;;56.38;23.52;;;-0.10;99.90;;;;;;2045015;29;20107;-73
2023/01/21 01:44:23;;;;;;;48.92;22.70;;;0.00;99.90;;;;;;2046778;29;20169;-74
2023/01/21 01:45:23;;;;;;;51.58;23.23;;;-0.10;99.90;;;;;;2036217;29;20031;-74
2023/01/21 01:46:27;;;;;;;52.83;23.55;;;-0.10;99.90;;;;;;2054129;28;20026;-73
2023/01/21 01:47:42;;;;;;;52.42;22.95;;;-0.10;99.90;;;;;;2047035;28;20069;-73
2023/01/21 01:48:47;;;;;;;51.10;22.70;;;-0.10;99.90;;;;;;2046994;29;20039;-72
2023/01/21 01:49:48;;;;;;;53.55;23.58;;;-0.10;99.90;;;;;;2046686;29;20035;-73
2023/01/21 01:50:48;;;;;;;51.75;22.85;;;-0.10;99.90;;;;;;2046338;28;20130;-73
2023/01/21 01:51:55;;;;;;;52.17;23.65;;;0.00;99.90;;;;;;2047117;29;20034;-73
2023/01/21 01:52:59;;;;;;;49.83;23.13;;;0.00;99.90;;;;;;2044098;28;20026;-73
2023/01/21 01:54:01;;;;;;;50.55;23.77;;;0.00;99.90;;;;;;2046708;28;20554;-73
2023/01/21 01:55:04;;;;;;;49.25;23.17;;;0.10;99.90;;;;;;2046546;29;20109;-73
2023/01/21 01:56:05;;;;;;;49.95;23.52;;;0.10;99.90;;;;;;2046782;29;20547;-73
2023/01/21 01:57:09;;;;;;;50.22;24.35;;;0.10;99.90;;;;;;2038048;29;20414;-73
2023/01/21 01:58:13;;;;;;;50.40;23.30;;;0.10;99.90;;;;;;2036649;29;20455;-74
2023/01/21 01:59:13;;;;;;;49.88;23.35;;;0.10;99.90;;;;;;2046630;29;20068;-74
2023/01/21 02:00:15;;;;;;;50.78;23.85;;;0.10;99.90;;;;;;2046552;29;20035;-73
2023/01/21 02:01:15;;;;;;;50.38;23.55;;;0.10;99.90;;;;;;2046089;29;20090;-73
2023/01/21 02:02:18;;;;;;;55.92;25.02;;;0.00;99.90;;;;;;2046587;29;20039;-73
2023/01/21 02:04:44;;;;;;;53.20;24.02;;;0.00;99.90;;;;;;2042052;29;20388;-72
2023/01/21 02:05:46;;;;;;;49.75;23.67;;;0.00;99.90;;;;;;2042245;29;20066;-73
2023/01/21 02:06:49;;;;;;;51.85;23.80;;;0.00;99.90;;;;;;2047021;28;20134;-74
2023/01/21 02:07:49;;;;;;;53.28;24.75;;;0.00;99.90;;;;;;2045087;29;20031;-74
2023/01/21 02:08:50;;;;;;;51.25;23.88;;;0.10;99.90;;;;;;2046686;29;20453;-74
2023/01/21 02:09:52;;;;;;;52.20;24.33;;;0.10;99.90;;;;;;2046641;29;20036;-74
2023/01/21 02:10:55;;;;;;;49.38;23.38;;;0.10;99.90;;;;;;2046410;29;20046;-74
2023/01/21 02:12:00;;;;;;;57.03;25.05;;;0.10;99.90;;;;;;2038282;29;20024;-74
2023/01/21 02:13:01;;;;;;;54.67;24.65;;;0.10;99.90;;;;;;2037014;29;20035;-74
2023/01/21 02:14:02;;;;;;;51.38;24.25;;;0.10;99.90;;;;;;2046602;29;20131;-74
2023/01/21 02:15:04;;;;;;;52.67;24.52;;;0.10;99.90;;;;;;2046853;29;20380;-73
2023/01/21 02:16:28;;;;;;;49.92;23.90;;;0.10;99.90;;;;;;2047167;28;20565;-73
2023/01/21 02:17:59;;;;;;;54.15;24.92;;;0.00;99.90;;;;;;2042723;28;20289;-74
2023/01/21 02:19:11;;;;;;;;;;;0.00;99.90;;;;;;2045156;28;20399;-74
2023/01/21 02:20:33;;;;;;;54.50;22.48;;;-0.10;99.90;;;;;;2043541;28;19945;-74
2023/01/21 02:21:45;;;;;;;55.25;24.23;;;-0.10;99.90;;;;;;2051809;28;20031;-74
2023/01/21 02:22:53;;;;;;;51.85;24.25;;;0.00;99.90;;;;;;2045599;28;20043;-74
2023/01/21 02:24:31;;;;;;;55.28;24.20;;;0.00;99.90;;;;;;2046499;29;20450;-74
2023/01/21 02:25:56;;;;;;;51.05;23.42;;;-0.10;99.90;;;;;;2046038;28;20134;-74
2023/01/21 02:27:31;;;;;;;55.95;23.80;;;-0.10;99.90;;;;;;2038748;29;20051;-74
2023/01/21 02:28:54;;;;;;;59.95;25.13;;;0.00;99.90;;;;;;2041027;29;20039;-75
2023/01/21 02:30:23;;;;;;;58.85;24.13;;;0.00;99.90;;;;;;2031469;29;20043;-75
2023/01/21 02:31:52;;;;;;;55.53;24.42;;;-0.10;99.90;;;;;;2035287;29;20094;-75
2023/01/21 02:33:25;;;;;;;59.92;24.70;;;-0.20;99.90;;;;;;2039838;28;20565;-73
2023/01/21 02:34:46;;;;;;;64.07;25.70;;;-0.20;99.90;;;;;;2044564;28;20127;-75
2023/01/21 02:36:16;;;;;;;;;;;-0.20;99.90;;;;;;2042714;28;20041;-76
2023/01/21 02:37:27;;;;;;;53.17;23.00;;;-0.20;99.90;;;;;;2041390;29;20503;-75
2023/01/21 02:38:38;;;;;;;61.88;25.80;;;-0.20;99.90;;;;;;2051932;28;20042;-76
2023/01/21 02:39:53;;;;;;;62.45;26.23;;;-0.20;99.90;;;;;;2038848;29;20373;-76
2023/01/21 02:41:27;;;;;;;61.63;26.00;;;-0.20;99.90;;;;;;2038779;29;20407;-73
2023/01/21 02:42:43;;;;;;;60.97;25.17;;;-0.20;99.90;;;;;;2038759;29;20035;-75
2023/01/21 02:44:09;;;;;;;60.40;26.38;;;-0.20;99.90;;;;;;2046815;28;20581;-74
2023/01/21 02:45:37;;;;;;;65.25;26.85;;;-0.10;99.90;;;;;;2034304;29;20074;-75
2023/01/21 02:46:43;;;;;;;63.83;26.17;;;-0.20;99.90;;;;;;2044954;29;20039;-74
2023/01/21 02:48:10;;;;;;;66.47;26.60;;;-0.20;99.90;;;;;;2046692;28;20589;-75
2023/01/21 02:49:29;;;;;;;61.20;26.20;;;-0.10;99.90;;;;;;2032428;29;20311;-74
2023/01/21 02:50:35;;;;;;;57.88;25.35;;;-0.10;99.90;;;;;;2033544;29;20115;-74
2023/01/21 02:51:36;;;;;;;59.30;25.67;;;-0.10;99.90;;;;;;2042773;28;20074;-74
2023/01/21 02:52:36;;;;;;;58.78;25.02;;;-0.10;99.90;;;;;;2048863;28;20402;-74
2023/01/21 02:53:37;;;;;;;52.80;23.08;;;0.00;99.90;;;;;;2050595;29;20039;-81
2023/01/21 02:54:37;;;;;;;50.55;23.15;;;0.00;99.90;;;;;;2051570;29;20738;-85
2023/01/21 02:55:38;;;;;;;48.67;22.15;;;0.00;99.90;;;;;;2051033;29;20035;-83
2023/01/21 02:56:38;;;;;;;44.50;18.65;;;-0.10;99.90;;;;;;2048895;28;20034;-85
2023/01/21 02:57:44;;;;;;;37.55;17.95;;;-0.10;99.90;;;;;;2049177;28;20125;-85
2023/01/21 02:58:58;;;;;;;39.05;18.05;;;-0.10;99.90;;;;;;2030375;29;20092;-82
2023/01/21 03:00:00;;;;;;;37.58;17.10;;;-0.10;99.90;;;;;;2038274;29;20042;-83
2023/01/21 03:01:12;;;;;;;36.45;16.08;;;-0.10;99.90;;;;;;2049117;28;20053;-81
2023/01/21 03:02:46;;;;;;;36.17;16.85;;;-0.10;99.90;;;;;;2044775;29;20031;-84
2023/01/21 03:04:11;;;;;;;40.70;17.25;;;-0.10;99.90;;;;;;2039672;29;20028;-83
2023/01/21 03:05:49;;;;;;;37.33;17.40;;;-0.10;99.90;;;;;;2046967;28;20035;-83
2023/01/21 03:07:09;;;;;;;35.38;16.13;;;-0.10;99.90;;;;;;2045367;29;20042;-83
2023/01/21 03:08:21;;;;;;;33.65;15.73;;;0.00;99.90;;;;;;2041313;29;20028;-84
2023/01/21 03:09:24;;;;;;;34.45;15.63;;;0.00;99.90;;;;;;2046675;29;20039;-83
2023/01/21 03:10:57;;;;;;;35.53;16.33;;;0.00;99.90;;;;;;2046851;29;20050;-83
2023/01/21 03:12:19;;;;;;;35.85;16.30;;;0.00;99.90;;;;;;2038822;28;20035;-85
2023/01/21 03:18:11;;;;;;;35.20;15.90;;;-0.20;99.90;;;;;;2055008;28;20058;-83
2023/01/21 03:19:13;;;;;;;34.97;15.90;;;-0.20;99.90;;;;;;2046870;29;20039;-83
2023/01/21 03:20:40;;;;;;;33.88;15.68;;;-0.20;99.90;;;;;;2046473;29;20562;-86
2023/01/21 03:21:41;;;;;;;36.15;15.57;;;-0.20;99.90;;;;;;2042876;29;20082;-86
2023/01/21 03:22:43;;;;;;;34.75;16.88;;;-0.20;99.90;;;;;;2046561;29;20118;-85
2023/01/21 03:23:48;;;;;;;38.95;17.17;;;-0.20;99.90;;;;;;2046771;29;20031;-85
2023/01/21 03:24:52;;;;;;;37.85;17.23;;;-0.30;99.90;;;;;;2038979;29;20044;-86
2023/01/21 03:25:54;;;;;;;35.50;17.15;;;-0.30;99.90;;;;;;2046453;29;20479;-85
2023/01/21 03:26:58;;;;;;;35.22;17.00;;;-0.30;99.90;;;;;;2045221;28;20031;-85
2023/01/21 03:28:03;;;;;;;37.00;16.58;;;-0.30;99.90;;;;;;2045642;28;20118;-84
2023/01/21 03:29:10;;;;;;;37.17;17.17;;;-0.20;99.90;;;;;;2046805;29;20031;-82
2023/01/21 03:30:16;;;;;;;34.95;17.08;;;-0.20;99.90;;;;;;2039232;29;20139;-84
2023/01/21 03:31:30;;;;;;;34.58;16.67;;;-0.20;99.90;;;;;;2046082;28;20466;-84
2023/01/21 03:32:32;;;;;;;33.33;16.77;;;-0.20;99.90;;;;;;2054302;28;20027;-84
2023/01/21 03:33:38;;;;;;;32.72;16.75;;;-0.20;99.90;;;;;;2038063;29;20050;-83
2023/01/21 03:34:43;;;;;;;35.70;16.67;;;-0.10;99.90;;;;;;2031054;29;20051;-85
2023/01/21 03:35:47;;;;;;;35.38;17.70;;;-0.10;99.90;;;;;;2038467;29;20067;-82
2023/01/21 03:37:27;;;;;;;35.15;17.83;;;-0.10;99.90;;;;;;2041791;28;20533;-84
2023/01/21 03:38:34;;;;;;;40.78;18.80;;;-0.20;99.90;;;;;;2002398;29;20041;-82
2023/01/21 03:39:42;;;;;;;38.85;17.33;;;-0.20;99.90;;;;;;2006756;29;20049;-84
2023/01/21 03:41:16;;;;;;;37.08;17.38;;;-0.30;99.90;;;;;;2018796;29;20095;-85
2023/01/21 03:42:17;;;;;;;38.50;18.20;;;-0.30;99.90;;;;;;2039077;29;20036;-85
2023/01/21 03:43:18;;;;;;;41.60;19.38;;;-0.30;99.90;;;;;;2046538;28;20113;-86
2023/01/21 03:44:19;;;;;;;40.83;19.08;;;-0.40;99.90;;;;;;2038272;29;20456;-83
2023/01/21 03:45:32;;;;;;;39.78;19.10;;;-0.40;99.90;;;;;;2028823;29;20147;-85
2023/01/21 03:46:47;;;;;;;42.08;19.23;;;-0.30;99.90;;;;;;2038275;29;20046;-84
2023/01/21 03:47:56;;;;;;;40.20;19.45;;;-0.30;99.90;;;;;;2046564;29;20023;-84
2023/01/21 03:49:01;;;;;;;38.65;18.92;;;-0.30;99.90;;;;;;2035432;29;20343;-82
2023/01/21 03:50:24;;;;;;;40.45;20.08;;;-0.30;99.90;;;;;;2035441;29;20043;-84
2023/01/21 03:51:49;;;;;;;42.95;19.52;;;-0.30;99.90;;;;;;2047655;28;20128;-83
2023/01/21 03:52:50;;;;;;;46.80;20.17;;;-0.30;99.90;;;;;;2046218;29;20039;-84
2023/01/21 03:53:54;;;;;;;42.17;20.10;;;-0.30;99.90;;;;;;2046015;29;20502;-85
2023/01/21 03:54:55;;;;;;;46.03;21.38;;;-0.30;99.90;;;;;;2050217;28;20035;-84
2023/01/21 03:55:57;;;;;;;45.10;21.35;;;-0.40;99.90;;;;;;2047624;28;20035;-84
2023/01/21 03:56:58;;;;;;;41.50;19.75;;;-0.40;99.90;;;;;;2052091;28;20058;-84
2023/01/21 03:57:58;;;;;;;43.03;20.70;;;-0.40;99.90;;;;;;2053264;28;20082;-85
2023/01/21 03:58:59;;;;;;;48.50;21.52;;;-0.40;99.90;;;;;;2046340;28;20058;-85
2023/01/21 03:59:59;;;;;;;46.65;22.10;;;-0.40;99.90;;;;;;2046292;29;20023;-85
2023/01/21 04:01:00;;;;;;;41.33;20.40;;;-0.40;99.90;;;;;;2044532;29;20031;-84
2023/01/21 04:02:00;;;;;;;42.05;20.52;;;-0.40;99.90;;;;;;2044701;29;20027;-84
2023/01/21 04:03:01;;;;;;;43.20;20.40;;;-0.40;99.90;;;;;;2046287;29;20042;-82
2023/01/21 04:04:02;;;;;;;44.08;21.98;;;-0.40;99.90;;;;;;2046560;29;20126;-84
2023/01/21 04:05:02;;;;;;;46.17;21.85;;;-0.40;99.90;;;;;;2046320;29;20035;-86
2023/01/21 04:06:03;;;;;;;44.08;21.85;;;-0.40;99.90;;;;;;2046359;29;20035;-85
2023/01/21 04:07:03;;;;;;;48.45;21.63;;;-0.50;99.90;;;;;;2044913;28;20135;-84
2023/01/21 04:08:04;;;;;;;44.08;21.70;;;-0.40;99.90;;;;;;2046161;29;20041;-84
2023/01/21 04:09:06;;;;;;;48.13;22.00;;;-0.50;99.90;;;;;;2046155;29;20041;-83
2023/01/21 04:10:07;;;;;;;45.13;21.63;;;-0.50;99.90;;;;;;2046493;29;20664;-84
2023/01/21 04:11:08;;;;;;;45.83;21.92;;;-0.50;99.90;;;;;;2037652;29;20513;-86
2023/01/21 04:12:09;;;;;;;42.88;21.58;;;-0.60;99.90;;;;;;2043772;29;20074;-85
2023/01/21 04:13:09;;;;;;;44.65;21.58;;;-0.50;99.90;;;;;;2047128;28;20030;-85
2023/01/21 04:14:10;;;;;;;44.80;22.45;;;-0.50;99.90;;;;;;2046294;29;20027;-86
2023/01/21 04:15:11;;;;;;;43.22;21.30;;;-0.50;99.90;;;;;;2038565;29;20036;-85
2023/01/21 04:16:11;;;;;;;42.35;21.27;;;-0.50;99.90;;;;;;2040258;29;20032;-84
2023/01/21 04:17:12;;;;;;;41.55;21.70;;;-0.50;99.90;;;;;;2045799;29;20035;-84
2023/01/21 04:18:12;;;;;;;39.17;21.05;;;-0.50;99.90;;;;;;2046777;29;20038;-84
2023/01/21 04:19:13;;;;;;;43.00;21.95;;;-0.50;99.90;;;;;;2046361;29;20043;-85
2023/01/21 04:20:13;;;;;;;42.55;21.00;;;-0.50;99.90;;;;;;2046611;29;20570;-83
2023/01/21 04:21:14;;;;;;;42.28;21.73;;;-0.40;99.90;;;;;;2050141;28;20049;-83
2023/01/21 04:22:15;;;;;;;40.13;21.10;;;-0.40;99.90;;;;;;2045766;28;20081;-83
2023/01/21 04:23:15;;;;;;;43.55;21.55;;;-0.50;99.90;;;;;;2047203;29;20042;-85
2023/01/21 04:24:16;;;;;;;42.53;21.25;;;-0.50;99.90;;;;;;2049396;28;20255;-83
2023/01/21 04:25:16;;;;;;;44.67;21.90;;;-0.50;99.90;;;;;;2047244;28;20054;-82
2023/01/21 04:26:17;;;;;;;41.47;22.02;;;-0.50;99.90;;;;;;2044627;29;20027;-83
2023/01/21 04:27:17;;;;;;;42.33;21.90;;;-0.50;99.90;;;;;;2037751;29;20113;-84
2023/01/21 04:28:18;;;;;;;45.17;22.02;;;-0.40;99.90;;;;;;2044496;28;20027;-85
2023/01/21 04:29:20;;;;;;;46.47;22.50;;;-0.40;99.90;;;;;;2047277;29;20047;-85
2023/01/21 04:30:20;;;;;;;43.83;22.73;;;-0.50;99.90;;;;;;2045744;29;20522;-85
2023/01/21 04:31:21;;;;;;;50.97;24.13;;;-0.40;99.90;;;;;;2037770;29;20038;-85
2023/01/21 04:32:21;;;;;;;46.80;22.45;;;-0.40;99.90;;;;;;2038102;29;20070;-85
2023/01/21 04:33:22;;;;;;;46.85;22.45;;;-0.50;99.90;;;;;;2046733;29;20035;-83
2023/01/21 04:34:22;;;;;;;42.25;22.77;;;-0.50;99.90;;;;;;2046330;28;20031;-84
2023/01/21 04:35:23;;;;;;;49.70;23.77;;;-0.50;99.90;;;;;;2038873;29;20119;-85
2023/01/21 04:36:23;;;;;;;45.97;22.83;;;-0.40;99.90;;;;;;2037827;29;20031;-85
2023/01/21 04:37:24;;;;;;;48.60;23.98;;;-0.40;99.90;;;;;;2046318;29;20203;-85
2023/01/21 04:38:25;;;;;;;44.30;23.05;;;-0.40;99.90;;;;;;2053054;28;20034;-85
2023/01/21 04:39:25;;;;;;;44.92;22.63;;;-0.40;99.90;;;;;;2035598;29;20047;-85
2023/01/21 04:40:26;;;;;;;49.38;23.67;;;-0.40;99.90;;;;;;2030289;29;20039;-85
2023/01/21 04:41:26;;;;;;;49.50;23.30;;;-0.40;99.90;;;;;;2045274;28;20032;-83
2023/01/21 04:42:27;;;;;;;41.10;21.63;;;-0.30;99.90;;;;;;2046243;29;20039;-84
2023/01/21 04:43:27;;;;;;;39.53;20.23;;;-0.40;99.90;;;;;;2046011;29;20771;-83
2023/01/21 04:44:28;;;;;;;44.47;21.73;;;-0.30;99.90;;;;;;2046155;29;20083;-82
2023/01/21 04:45:29;;;;;;;44.95;22.40;;;-0.40;99.90;;;;;;2041491;29;20035;-84
2023/01/21 04:46:29;;;;;;;41.10;21.45;;;-0.40;99.90;;;;;;2045590;28;20035;-84
2023/01/21 04:47:30;;;;;;;44.42;22.10;;;-0.40;99.90;;;;;;2050166;28;20224;-84
2023/01/21 04:48:32;;;;;;;44.22;21.88;;;-0.40;99.90;;;;;;2046597;28;20043;-83
2023/01/21 04:49:32;;;;;;;48.88;22.83;;;-0.40;99.90;;;;;;2046162;29;20174;-85
2023/01/21 04:50:33;;;;;;;51.80;23.33;;;-0.50;99.90;;;;;;2046274;29;20462;-84
2023/01/21 04:51:33;;;;;;;45.67;22.58;;;-0.50;99.90;;;;;;2046181;29;20066;-84
2023/01/21 04:52:34;;;;;;;45.05;22.42;;;-0.50;99.90;;;;;;2047306;28;20491;-84
2023/01/21 04:53:34;;;;;;;42.20;22.08;;;-0.50;99.90;;;;;;2047090;28;20035;-85
2023/01/21 04:54:35;;;;;;;39.80;20.67;;;-0.50;99.90;;;;;;2047394;29;20058;-84
2023/01/21 04:55:35;;;;;;;39.08;19.67;;;-0.50;99.90;;;;;;2046452;29;20593;-86
2023/01/21 04:56:36;;;;;;;43.20;20.83;;;-0.50;99.90;;;;;;2045746;29;20367;-83
2023/01/21 04:57:37;;;;;;;39.17;19.42;;;-0.40;99.90;;;;;;2047142;29;20541;-85
2023/01/21 04:58:37;;;;;;;39.60;19.73;;;-0.50;99.90;;;;;;2046557;29;20051;-85
2023/01/21 04:59:38;;;;;;;41.83;20.67;;;-0.50;99.90;;;;;;2046370;29;20045;-86
2023/01/21 05:00:38;;;;;;;42.30;21.25;;;-0.40;99.90;;;;;;2046947;29;20032;-86
2023/01/21 05:01:39;;;;;;;41.83;20.10;;;-0.40;99.90;;;;;;2045504;28;20098;-84
2023/01/21 05:02:40;;;;;;;39.92;19.05;;;-0.40;99.90;;;;;;2046216;29;20118;-84
2023/01/21 05:03:40;;;;;;;39.67;20.17;;;-0.40;99.90;;;;;;2045985;29;20093;-85
2023/01/21 05:04:41;;;;;;;37.55;19.08;;;-0.40;99.90;;;;;;2046609;28;20314;-83
2023/01/21 05:05:41;;;;;;;36.13;18.48;;;-0.40;99.90;;;;;;2046453;29;20031;-84
2023/01/21 05:06:42;;;;;;;37.03;18.85;;;-0.40;99.90;;;;;;2045662;29;20205;-86
2023/01/21 05:07:42;;;;;;;36.92;18.52;;;-0.40;99.90;;;;;;2050553;28;20035;-84
2023/01/21 05:08:43;;;;;;;38.22;18.13;;;-0.40;99.90;;;;;;2038296;29;20127;-84
2023/01/21 05:09:43;;;;;;;36.63;18.98;;;-0.40;99.90;;;;;;2038029;29;20040;-85
2023/01/21 05:10:44;;;;;;;37.60;18.40;;;-0.40;99.90;;;;;;2045398;29;20654;-85
2023/01/21 05:11:44;;;;;;;36.60;18.95;;;-0.40;99.90;;;;;;2036371;29;20047;-85
2023/01/21 05:12:45;;;;;;;36.30;18.58;;;-0.40;99.90;;;;;;2037952;29;20043;-85
2023/01/21 05:13:45;;;;;;;36.03;18.77;;;-0.40;99.90;;;;;;2046174;29;20028;-85
2023/01/21 05:14:46;;;;;;;36.17;18.73;;;-0.40;99.90;;;;;;2046243;29;20031;-84
2023/01/21 05:15:47;;;;;;;37.38;19.58;;;-0.40;99.90;;;;;;2046516;29;20067;-85
2023/01/21 05:16:47;;;;;;;38.95;19.55;;;-0.40;99.90;;;;;;2042247;29;20033;-86
2023/01/21 05:17:48;;;;;;;37.33;19.27;;;-0.40;99.90;;;;;;2046491;29;20031;-85
2023/01/21 05:18:48;;;;;;;37.00;18.17;;;-0.40;99.90;;;;;;2047503;28;20034;-82
2023/01/21 05:19:52;;;;;;;39.47;19.25;;;-0.40;99.90;;;;;;2050372;28;20129;-85
2023/01/21 05:20:53;;;;;;;44.35;20.20;;;-0.30;99.90;;;;;;2037853;29;20035;-84
2023/01/21 05:21:54;;;;;;;41.67;20.15;;;-0.40;99.90;;;;;;2038422;29;20123;-84
2023/01/21 05:22:54;;;;;;;37.10;19.73;;;-0.40;99.90;;;;;;2046554;29;20035;-84
2023/01/21 05:23:55;;;;;;;41.95;20.42;;;-0.40;99.90;;;;;;2039238;29;20558;-86
2023/01/21 05:24:55;;;;;;;38.58;19.73;;;-0.40;99.90;;;;;;2037654;29;20028;-86
2023/01/21 05:25:56;;;;;;;37.67;19.58;;;-0.40;99.90;;;;;;2046289;29;20027;-84
2023/01/21 05:26:56;;;;;;;39.50;19.75;;;-0.40;99.90;;;;;;2036200;29;20079;-83
2023/01/21 05:27:57;;;;;;;40.65;18.70;;;-0.40;99.90;;;;;;2037724;29;20039;-84
2023/01/21 05:28:57;;;;;;;38.70;19.02;;;-0.40;99.90;;;;;;2046314;29;20035;-84
2023/01/21 05:29:58;;;;;;;37.42;19.77;;;-0.40;99.90;;;;;;2045716;28;20037;-85
2023/01/21 05:31:02;;;;;;;41.42;20.08;;;-0.40;99.90;;;;;;2045884;28;20058;-84
2023/01/21 05:32:03;;;;;;;38.13;19.13;;;-0.30;99.90;;;;;;2044801;28;20039;-84
2023/01/21 05:33:03;;;;;;;39.95;20.25;;;-0.40;99.90;;;;;;2046086;29;20118;-68
2023/01/21 05:34:04;;;;;;;41.47;19.90;;;-0.40;99.90;;;;;;2045627;29;20110;-71
2023/01/21 05:35:05;;;;;;;40.85;19.52;;;-0.40;99.90;;;;;;2045945;28;20481;-75